createdAt,value
2023-04-05T00:02:24.779Z,38.25
2023-04-05T00:04:54.992Z,38.53
2023-04-05T00:07:24.668Z,39.00
2023-04-05T00:09:52.713Z,39.94
2023-04-05T00:12:21.334Z,39.69
2023-04-05T00:14:48.936Z,38.15
2023-04-05T00:17:18.221Z,38.04
2023-04-05T00:19:45.755Z,38.85
2023-04-05T00:22:14.009Z,38.11
2023-04-05T00:24:43.548Z,37.81
2023-04-05T00:27:12.026Z,36.99
2023-04-05T00:29:40.040Z,37.63
2023-04-05T00:32:07.927Z,37.35
2023-04-05T00:34:35.795Z,37.34
2023-04-05T00:37:03.827Z,37.57
2023-04-05T00:39:32.047Z,38.44
2023-04-05T00:42:06.241Z,38.19
2023-04-05T00:44:35.173Z,38.08
2023-04-05T00:47:07.830Z,37.97
2023-04-05T00:49:38.982Z,39.21
2023-04-05T00:52:07.016Z,39.32
2023-04-05T00:54:35.243Z,39.23
2023-04-05T00:57:03.516Z,38.80
2023-04-05T00:59:31.452Z,38.97
2023-04-05T01:02:02.749Z,38.73
2023-04-05T01:04:33.044Z,39.05
2023-04-05T01:07:14.540Z,39.02
2023-04-05T01:09:53.839Z,39.14
2023-04-05T01:12:23.597Z,39.11
2023-04-05T01:14:54.241Z,39.88
2023-04-05T01:17:24.519Z,39.50
2023-04-05T01:19:58.991Z,39.28
2023-04-05T01:23:04.550Z,39.53
2023-04-05T01:26:09.162Z,40.00
2023-04-05T01:28:58.614Z,40.69
2023-04-05T01:31:44.040Z,40.64
2023-04-05T01:34:34.512Z,40.47
2023-04-05T01:37:06.615Z,40.80
2023-04-05T01:39:36.449Z,41.59
2023-04-05T01:42:06.152Z,41.60
2023-04-05T01:44:33.770Z,41.49
2023-04-05T01:47:01.435Z,42.49
2023-04-05T01:49:29.305Z,41.92
2023-04-05T01:51:58.120Z,41.66
2023-04-05T01:54:25.596Z,42.12
2023-04-05T01:56:54.118Z,41.87
2023-04-05T01:59:23.107Z,42.54
2023-04-05T02:01:53.606Z,42.18
2023-04-05T02:04:24.496Z,42.80
2023-04-05T02:06:53.077Z,42.52
2023-04-05T02:09:21.687Z,42.92
2023-04-05T02:11:49.957Z,43.58
2023-04-05T02:14:20.399Z,43.43
2023-04-05T02:16:49.785Z,44.13
2023-04-05T02:19:23.287Z,43.50
2023-04-05T02:21:58.036Z,44.20
2023-04-05T02:24:26.861Z,43.92
2023-04-05T02:26:54.806Z,44.10
2023-04-05T02:29:32.109Z,44.20
2023-04-05T02:32:01.096Z,44.41
2023-04-05T02:34:29.114Z,44.16
2023-04-05T02:36:59.408Z,44.37
2023-04-05T02:39:29.118Z,43.80
2023-04-05T02:41:59.428Z,43.39
2023-04-05T02:44:30.036Z,43.74
2023-04-05T02:46:58.230Z,43.95
2023-04-05T02:49:26.259Z,43.65
2023-04-05T02:51:56.355Z,43.05
2023-04-05T02:54:25.300Z,43.43
2023-04-05T02:56:54.836Z,43.37
2023-04-05T02:59:23.823Z,43.65
2023-04-05T03:01:51.798Z,43.94
2023-04-05T03:04:21.636Z,44.13
2023-04-05T03:06:57.454Z,44.45
2023-04-05T03:09:32.833Z,44.54
2023-04-05T03:12:04.482Z,44.15
2023-04-05T03:14:34.562Z,44.02
2023-04-05T03:17:06.489Z,44.22
2023-04-05T03:19:35.892Z,43.26
2023-04-05T03:22:05.471Z,44.33
2023-04-05T03:24:33.521Z,44.05
2023-04-05T03:27:04.251Z,44.03
2023-04-05T03:29:34.877Z,44.02
2023-04-05T03:32:12.682Z,43.85
2023-04-05T03:34:42.219Z,44.49
2023-04-05T03:37:12.077Z,44.17
2023-04-05T03:39:39.971Z,44.65
2023-04-05T03:42:08.176Z,44.32
2023-04-05T03:44:37.399Z,43.85
2023-04-05T03:47:06.174Z,44.14
2023-04-05T03:49:35.238Z,44.19
2023-04-05T03:52:10.817Z,43.89
2023-04-05T03:54:43.315Z,44.03
2023-04-05T03:57:12.241Z,43.83
2023-04-05T03:59:41.676Z,44.28
2023-04-05T04:02:11.256Z,44.56
2023-04-05T04:04:39.811Z,44.22
2023-04-05T04:07:11.088Z,44.21
2023-04-05T04:09:39.557Z,44.33
2023-04-05T04:12:08.469Z,43.98
2023-04-05T04:14:40.035Z,44.50
2023-04-05T04:17:12.866Z,44.64
2023-04-05T04:19:53.492Z,44.10
2023-04-05T04:22:22.711Z,44.27
2023-04-05T04:24:53.653Z,44.16
2023-04-05T04:27:29.485Z,43.56
2023-04-05T04:30:10.971Z,44.89
2023-04-05T04:32:55.673Z,44.35
2023-04-05T04:35:30.767Z,45.25
2023-04-05T04:38:04.752Z,46.02
2023-04-05T04:40:40.370Z,45.81
2023-04-05T04:43:17.494Z,43.99
2023-04-05T04:45:55.012Z,45.20
2023-04-05T04:48:25.873Z,45.65
2023-04-05T04:50:58.746Z,44.53
2023-04-05T04:53:34.091Z,44.18
2023-04-05T04:56:09.045Z,44.36
2023-04-05T04:58:39.713Z,45.06
2023-04-05T05:03:55.656Z,43.98
2023-04-05T05:06:31.000Z,44.40
2023-04-05T05:08:59.236Z,46.46
2023-04-05T05:11:29.115Z,45.18
2023-04-05T05:14:04.066Z,45.18
2023-04-05T05:16:33.811Z,45.26
2023-04-05T05:19:01.832Z,45.20
2023-04-05T05:21:37.231Z,44.29
2023-04-05T05:24:10.270Z,44.86
2023-04-05T05:26:39.664Z,44.36
2023-04-05T05:29:21.631Z,45.32
2023-04-05T05:31:54.828Z,45.27
2023-04-05T05:34:24.780Z,45.30
2023-04-05T05:36:56.130Z,45.60
2023-04-05T05:39:27.844Z,45.20
2023-04-05T05:41:57.670Z,43.80
2023-04-05T05:44:26.161Z,43.48
2023-04-05T05:46:59.163Z,42.48
2023-04-05T05:49:33.646Z,42.51
2023-04-05T05:52:04.560Z,43.35
2023-04-05T05:54:33.111Z,43.57
2023-04-05T05:57:04.724Z,43.05
2023-04-05T05:59:39.600Z,43.58
2023-04-05T06:02:10.712Z,42.75
2023-04-05T06:04:39.646Z,43.39
2023-04-05T06:07:07.842Z,42.80
2023-04-05T06:09:38.110Z,44.31
2023-04-05T06:12:09.072Z,43.23
2023-04-05T06:14:37.880Z,42.19
2023-04-05T06:17:10.515Z,43.01
2023-04-05T06:19:39.440Z,42.60
2023-04-05T06:24:54.303Z,41.59
2023-04-05T06:27:24.630Z,41.75
2023-04-05T06:29:54.139Z,42.11
2023-04-05T06:32:25.984Z,41.62
2023-04-05T06:34:54.717Z,41.99
2023-04-05T06:37:28.847Z,41.43
2023-04-05T06:40:07.628Z,40.92
2023-04-05T06:42:37.728Z,40.42
2023-04-05T06:45:10.610Z,40.07
2023-04-05T06:47:42.441Z,39.38
2023-04-05T06:52:50.655Z,37.08
2023-04-05T06:55:19.344Z,37.22
2023-04-05T06:57:46.954Z,37.81
2023-04-05T07:00:19.932Z,38.74
2023-04-05T07:02:54.864Z,38.51
2023-04-05T07:05:38.686Z,37.78
2023-04-05T07:08:09.405Z,36.96
2023-04-05T07:10:41.807Z,36.81
2023-04-05T07:13:10.118Z,37.17
2023-04-05T07:15:41.016Z,35.50
2023-04-05T07:18:19.438Z,35.19
2023-04-05T07:20:52.333Z,33.55
2023-04-05T07:23:23.060Z,33.65
2023-04-05T07:25:53.265Z,34.02
2023-04-05T07:28:26.613Z,32.46
2023-04-05T07:31:05.812Z,32.20
2023-04-05T07:33:35.689Z,30.74
2023-04-05T07:36:08.603Z,31.35
2023-04-05T07:38:37.370Z,30.31
2023-04-05T07:41:16.680Z,32.58
2023-04-05T07:43:47.216Z,33.51
2023-04-05T07:46:17.759Z,30.74
2023-04-05T07:48:49.873Z,33.23
2023-04-05T07:51:17.837Z,32.82
2023-04-05T07:53:52.511Z,32.38
2023-04-05T07:56:23.198Z,32.05
2023-04-05T07:58:56.242Z,33.74
2023-04-05T08:01:29.656Z,33.07
2023-04-05T08:03:59.028Z,33.65
2023-04-05T08:06:31.225Z,32.58
2023-04-05T08:08:59.257Z,32.32
2023-04-05T08:11:27.468Z,31.56
2023-04-05T08:13:56.835Z,30.81
2023-04-05T08:16:28.682Z,31.74
2023-04-05T08:18:59.169Z,30.31
2023-04-05T08:21:28.799Z,31.60
2023-04-05T08:23:57.122Z,31.26
2023-04-05T08:26:26.263Z,31.32
2023-04-05T08:28:57.066Z,29.84
2023-04-05T08:31:26.912Z,30.23
2023-04-05T08:33:58.684Z,31.06
2023-04-05T08:36:28.958Z,31.75
2023-04-05T08:38:57.582Z,31.57
2023-04-05T08:41:29.024Z,30.90
2023-04-05T08:44:04.612Z,31.50
2023-04-05T08:46:34.160Z,32.21
2023-04-05T08:49:08.354Z,31.62
2023-04-05T08:51:41.070Z,31.30
2023-04-05T08:54:10.178Z,30.95
2023-04-05T08:59:22.320Z,30.68
2023-04-05T09:01:53.634Z,31.52
2023-04-05T09:04:27.731Z,30.77
2023-04-05T09:07:00.144Z,29.49
2023-04-05T09:09:35.777Z,29.25
2023-04-05T09:12:14.458Z,30.45
2023-04-05T09:14:48.646Z,29.34
2023-04-05T09:17:20.145Z,29.38
2023-04-05T09:19:50.714Z,30.11
2023-04-05T09:22:33.721Z,28.88
2023-04-05T09:25:12.254Z,28.50
2023-04-05T09:27:57.921Z,29.37
2023-04-05T09:30:28.095Z,28.74
2023-04-05T09:32:59.155Z,29.74
2023-04-05T09:35:29.996Z,31.22
2023-04-05T09:38:05.637Z,29.97
2023-04-05T09:40:43.983Z,29.92
2023-04-05T09:43:14.631Z,29.26
2023-04-05T09:45:46.768Z,28.27
2023-04-05T09:48:16.264Z,28.72
2023-04-05T09:50:46.069Z,29.52
2023-04-05T09:53:19.102Z,28.51
2023-04-05T09:55:56.736Z,27.46
2023-04-05T09:58:25.908Z,28.23
2023-04-05T10:01:09.715Z,28.64
2023-04-05T10:03:51.126Z,28.67
2023-04-05T10:06:19.259Z,29.05
2023-04-05T10:08:50.748Z,30.45
2023-04-05T10:11:21.097Z,28.97
2023-04-05T10:13:50.806Z,27.41
2023-04-05T10:16:25.595Z,27.55
2023-04-05T10:18:54.050Z,26.87
2023-04-05T10:21:25.388Z,26.95
2023-04-05T10:24:07.044Z,26.82
2023-04-05T10:26:47.613Z,27.80
2023-04-05T10:29:26.403Z,27.52
2023-04-05T10:32:11.478Z,28.30
2023-04-05T10:34:58.878Z,28.65
2023-04-05T10:37:37.277Z,26.12
2023-04-05T10:40:18.741Z,26.59
2023-04-05T10:42:50.621Z,28.87
2023-04-05T10:45:22.662Z,26.57
2023-04-05T10:47:59.550Z,27.21
2023-04-05T10:50:28.292Z,28.09
2023-04-05T10:53:05.697Z,28.21
2023-04-05T10:55:35.540Z,27.88
2023-04-05T10:58:05.785Z,26.83
2023-04-05T11:00:43.812Z,26.08
2023-04-05T11:03:51.982Z,25.97
2023-04-05T11:06:33.628Z,25.67
2023-04-05T11:09:11.767Z,24.66
2023-04-05T11:11:44.060Z,26.73
2023-04-05T11:14:28.855Z,25.27
2023-04-05T11:16:59.227Z,25.93
2023-04-05T11:19:48.646Z,25.17
2023-04-05T11:22:27.659Z,25.77
2023-04-05T11:25:04.913Z,24.24
2023-04-05T11:27:37.764Z,23.49
2023-04-05T11:30:09.988Z,25.73
2023-04-05T11:32:45.231Z,25.68
2023-04-05T11:35:24.683Z,25.20
2023-04-05T11:37:57.143Z,26.49
2023-04-05T11:40:34.754Z,27.12
2023-04-05T11:43:08.058Z,25.15
2023-04-05T11:45:39.789Z,25.66
2023-04-05T11:48:14.700Z,25.17
2023-04-05T11:50:45.622Z,25.46
2023-04-05T11:53:16.855Z,25.48
2023-04-05T11:55:56.695Z,24.56
2023-04-05T11:58:26.861Z,24.66
2023-04-05T12:01:00.533Z,24.61
2023-04-05T12:03:32.726Z,24.17
2023-04-05T12:06:05.139Z,23.31
2023-04-05T12:08:43.028Z,25.33
2023-04-05T12:11:14.943Z,24.70
2023-04-05T12:14:00.813Z,25.87
2023-04-05T12:16:40.702Z,24.36
2023-04-05T12:19:10.515Z,23.60
2023-04-05T12:21:45.985Z,23.79
2023-04-05T12:24:17.767Z,23.69
2023-04-05T12:26:46.968Z,24.17
2023-04-05T12:29:22.085Z,23.49
2023-04-05T12:31:52.933Z,23.84
2023-04-05T12:34:26.503Z,23.11
2023-04-05T12:36:57.877Z,23.04
2023-04-05T12:39:33.114Z,23.11
2023-04-05T12:42:06.782Z,22.25
2023-04-05T12:44:37.032Z,24.11
2023-04-05T12:47:12.962Z,23.42
2023-04-05T12:49:43.073Z,21.74
2023-04-05T12:52:11.870Z,22.00
2023-04-05T12:54:40.662Z,22.70
2023-04-05T13:00:08.810Z,22.69
2023-04-05T13:02:44.749Z,22.58
2023-04-05T13:05:17.944Z,24.20
2023-04-05T13:07:48.754Z,22.48
2023-04-05T13:10:18.752Z,22.71
2023-04-05T13:12:51.609Z,23.17
2023-04-05T13:15:32.268Z,23.82
2023-04-05T13:18:06.406Z,23.33
2023-04-05T13:20:38.735Z,23.52
2023-04-05T13:23:12.213Z,23.49
2023-04-05T13:25:47.631Z,22.65
2023-04-05T13:28:24.059Z,22.18
2023-04-05T13:30:54.925Z,22.15
2023-04-05T13:33:24.302Z,22.80
2023-04-05T13:35:53.156Z,23.04
2023-04-05T13:38:22.651Z,21.75
2023-04-05T13:40:58.098Z,20.84
2023-04-05T13:46:04.736Z,21.28
2023-04-05T13:48:41.630Z,21.32
2023-04-05T13:51:09.981Z,22.26
2023-04-05T13:53:46.511Z,22.29
2023-04-05T13:56:18.243Z,22.33
2023-04-05T13:58:48.791Z,23.46
2023-04-05T14:01:18.010Z,22.60
2023-04-05T14:03:50.714Z,22.69
2023-04-05T14:09:00.505Z,24.43
2023-04-05T14:11:29.717Z,23.23
2023-04-05T14:14:02.426Z,24.09
2023-04-05T14:16:36.576Z,24.18
2023-04-05T14:19:14.693Z,23.56
2023-04-05T14:21:43.008Z,21.78
2023-04-05T14:24:11.359Z,22.20
2023-04-05T14:26:49.497Z,22.73
2023-04-05T14:32:08.202Z,21.72
2023-04-05T14:34:41.921Z,22.12
2023-04-05T14:37:11.111Z,23.29
2023-04-05T14:39:51.356Z,22.86
2023-04-05T14:42:34.152Z,21.27
2023-04-05T14:45:18.964Z,21.97
2023-04-05T14:47:52.960Z,21.59
2023-04-05T14:50:24.833Z,21.13
2023-04-05T14:52:56.654Z,21.52
2023-04-05T14:55:39.573Z,21.33
2023-04-05T14:58:11.598Z,20.49
2023-04-05T15:00:52.159Z,22.33
2023-04-05T15:03:24.055Z,21.55
2023-04-05T15:06:03.588Z,20.93
2023-04-05T15:08:36.192Z,20.60
2023-04-05T15:11:08.531Z,21.25
2023-04-05T15:13:44.763Z,21.38
2023-04-05T15:16:26.784Z,21.74
2023-04-05T15:19:04.526Z,21.80
2023-04-05T15:21:35.736Z,20.50
2023-04-05T15:24:06.295Z,21.17
2023-04-05T15:26:42.895Z,21.24
2023-04-05T15:29:11.943Z,20.67
2023-04-05T15:31:52.186Z,22.61
2023-04-05T15:34:26.914Z,22.29
2023-04-05T15:37:03.769Z,21.63
2023-04-05T15:42:24.643Z,20.96
2023-04-05T15:44:55.378Z,20.46
2023-04-05T15:47:25.998Z,20.36
2023-04-05T15:50:02.573Z,21.68
2023-04-05T15:55:20.623Z,21.92
2023-04-05T15:57:54.767Z,21.43
2023-04-05T16:00:26.634Z,21.40
2023-04-05T16:05:34.596Z,21.01
2023-04-05T16:08:04.535Z,20.86
2023-04-05T16:10:42.898Z,19.35
2023-04-05T16:15:51.096Z,20.18
2023-04-05T16:18:24.116Z,21.14
2023-04-05T16:23:30.667Z,21.37
2023-04-05T16:26:01.188Z,21.95
2023-04-05T16:28:36.691Z,21.25
2023-04-05T16:31:08.647Z,22.90
2023-04-05T16:33:44.167Z,23.17
2023-04-05T16:36:25.919Z,23.27
2023-04-05T16:38:55.173Z,23.24
2023-04-05T16:41:32.669Z,22.47
2023-04-05T16:44:09.569Z,23.11
2023-04-05T16:46:46.057Z,23.77
2023-04-05T16:49:16.644Z,23.39
2023-04-05T16:51:47.656Z,22.17
2023-04-05T16:54:22.638Z,22.06
2023-04-05T16:56:53.152Z,22.03
2023-04-05T16:59:21.537Z,22.28
2023-04-05T17:04:29.682Z,22.32
2023-04-05T17:06:59.678Z,22.31
2023-04-05T17:09:36.536Z,23.74
2023-04-05T17:12:07.021Z,23.51
2023-04-05T17:14:36.609Z,26.06
2023-04-05T17:17:12.340Z,26.66
2023-04-05T17:19:55.131Z,26.72
2023-04-05T17:22:31.632Z,27.52
2023-04-05T17:25:02.900Z,27.23
2023-04-05T17:27:43.604Z,27.46
2023-04-05T17:30:16.108Z,27.88
2023-04-05T17:32:51.600Z,28.63
2023-04-05T17:35:20.884Z,29.06
2023-04-05T17:40:36.711Z,30.36
2023-04-05T17:43:14.537Z,30.31
2023-04-05T17:45:45.532Z,30.20
2023-04-05T17:48:14.343Z,30.25
2023-04-05T17:50:43.656Z,30.54
2023-04-05T17:53:17.575Z,30.86
2023-04-05T17:58:41.128Z,31.31
2023-04-05T18:04:01.657Z,32.21
2023-04-05T18:06:37.964Z,32.22
2023-04-05T18:09:21.791Z,32.57
2023-04-05T18:11:57.147Z,32.89
2023-04-05T18:14:25.625Z,33.02
2023-04-05T18:17:03.110Z,32.65
2023-04-05T18:19:40.655Z,33.54
2023-04-05T18:22:10.254Z,34.02
2023-04-05T18:24:45.494Z,34.06
2023-04-05T18:27:15.429Z,32.98
2023-04-05T18:29:46.900Z,33.91
2023-04-05T18:32:21.864Z,34.34
2023-04-05T18:34:57.722Z,35.73
2023-04-05T18:37:29.707Z,35.47
2023-04-05T18:40:10.138Z,35.15
2023-04-05T18:42:40.127Z,37.15
2023-04-05T18:47:50.573Z,35.26
2023-04-05T18:50:24.753Z,37.41
2023-04-05T18:53:01.556Z,37.15
2023-04-05T18:55:32.167Z,36.49
2023-04-05T18:58:03.801Z,38.60
2023-04-05T19:00:36.990Z,38.47
2023-04-05T19:05:57.000Z,37.84
2023-04-05T19:08:26.869Z,37.92
2023-04-05T19:11:13.094Z,37.88
2023-04-05T19:13:47.663Z,38.54
2023-04-05T19:16:28.611Z,39.39
2023-04-05T19:19:11.505Z,39.87
2023-04-05T19:21:44.681Z,37.50
2023-04-05T19:24:16.774Z,38.29
2023-04-05T19:26:53.617Z,39.06
2023-04-05T19:29:32.604Z,40.37
2023-04-05T19:32:14.692Z,39.21
2023-04-05T19:34:48.493Z,40.57
2023-04-05T19:37:18.892Z,40.93
2023-04-05T19:39:55.109Z,41.05
2023-04-05T19:42:26.630Z,40.98
2023-04-05T19:44:58.590Z,40.47
2023-04-05T19:50:37.011Z,41.00
2023-04-05T19:53:08.936Z,41.12
2023-04-05T19:55:40.806Z,41.13
2023-04-05T19:58:10.055Z,41.08
2023-04-05T20:00:49.747Z,40.17
2023-04-05T20:03:37.503Z,39.66
2023-04-05T20:06:10.893Z,40.33
2023-04-05T20:08:46.824Z,39.41
2023-04-05T20:11:16.961Z,38.67
2023-04-05T20:13:55.411Z,38.65
2023-04-05T20:16:33.630Z,37.98
2023-04-05T20:19:06.821Z,37.62
2023-04-05T20:21:39.109Z,37.19
2023-04-05T20:26:55.757Z,34.53
2023-04-05T20:29:28.896Z,33.99
2023-04-05T20:32:11.602Z,34.62
2023-04-05T20:34:39.781Z,36.97
2023-04-05T20:37:11.558Z,35.51
2023-04-05T20:39:41.821Z,33.51
2023-04-05T20:42:15.587Z,35.60
2023-04-05T20:44:48.268Z,35.83
2023-04-05T20:47:15.883Z,35.65
2023-04-05T20:49:47.638Z,36.38
2023-04-05T20:52:23.188Z,36.56
2023-04-05T20:54:52.357Z,37.09
2023-04-05T20:57:24.140Z,37.20
2023-04-05T20:59:51.919Z,37.20
2023-04-05T21:02:23.645Z,37.83
2023-04-05T21:04:53.527Z,37.02
2023-04-05T21:07:29.923Z,38.46
2023-04-05T21:09:58.384Z,38.40
2023-04-05T21:12:33.740Z,38.79
2023-04-05T21:15:03.312Z,39.62
2023-04-05T21:17:35.016Z,39.37
2023-04-05T21:20:08.476Z,38.53
2023-04-05T21:22:41.340Z,37.78
2023-04-05T21:25:15.481Z,39.48
2023-04-05T21:27:46.065Z,39.26
2023-04-05T21:30:14.938Z,38.92
2023-04-05T21:32:42.740Z,38.69
2023-04-05T21:35:12.833Z,39.39
2023-04-05T21:37:40.716Z,40.73
2023-04-05T21:40:09.788Z,40.41
2023-04-05T21:42:37.951Z,40.63
2023-04-05T21:45:11.484Z,41.23
2023-04-05T21:47:40.557Z,40.62
2023-04-05T21:50:08.877Z,40.76
2023-04-05T21:52:37.132Z,41.13
2023-04-05T21:55:09.224Z,40.79
2023-04-05T21:57:37.512Z,40.64
2023-04-05T22:00:08.676Z,41.52
2023-04-05T22:02:39.958Z,42.30
2023-04-05T22:05:08.761Z,41.39
2023-04-05T22:07:36.723Z,40.85
2023-04-05T22:10:06.329Z,41.14
2023-04-05T22:12:36.558Z,41.75
2023-04-05T22:15:07.786Z,42.16
2023-04-05T22:17:36.659Z,42.94
2023-04-05T22:20:05.005Z,42.97
2023-04-05T22:22:33.579Z,42.91
2023-04-05T22:25:01.819Z,42.35
2023-04-05T22:27:30.243Z,42.43
2023-04-05T22:29:58.791Z,42.35
2023-04-05T22:32:27.773Z,42.63
2023-04-05T22:34:56.612Z,43.99
2023-04-05T22:37:25.412Z,43.67
2023-04-05T22:39:53.552Z,43.74
2023-04-05T22:42:24.138Z,43.86
2023-04-05T22:44:52.737Z,42.78
2023-04-05T22:47:21.556Z,43.20
2023-04-05T22:49:49.858Z,43.68
2023-04-05T22:52:18.080Z,44.35
2023-04-05T22:54:46.088Z,44.29
2023-04-05T22:57:13.581Z,43.37
2023-04-05T22:59:41.304Z,42.21
2023-04-05T23:02:09.801Z,43.59
2023-04-05T23:04:37.741Z,44.30
2023-04-05T23:07:06.811Z,44.10
2023-04-05T23:09:36.846Z,43.75
2023-04-05T23:12:07.012Z,43.51
2023-04-05T23:14:40.737Z,45.57
2023-04-05T23:17:08.933Z,45.93
2023-04-05T23:19:36.601Z,46.08
2023-04-05T23:22:04.640Z,46.41
2023-04-05T23:24:32.024Z,45.32
2023-04-05T23:27:00.592Z,46.33
2023-04-05T23:29:29.122Z,46.20
2023-04-05T23:31:56.644Z,46.10
2023-04-05T23:34:24.903Z,45.48
2023-04-05T23:37:00.562Z,46.30
2023-04-05T23:39:28.247Z,44.17
2023-04-05T23:41:56.822Z,44.88
2023-04-05T23:44:24.518Z,46.02
2023-04-05T23:46:52.377Z,45.10
2023-04-05T23:49:19.988Z,46.14
2023-04-05T23:51:47.310Z,46.32
2023-04-05T23:54:16.859Z,46.93
2023-04-05T23:56:45.922Z,46.25
2023-04-05T23:59:14.536Z,46.03
